Aeropuerto Internacional General Rafael Buelna, México

3:29 PM MDT en Octubre 21, 2014 (GMT -0600)
Gen Rafael Buelna International | Change Station
CLOSE
Current Station
Aeropuerto
Location: Mazatlan Airport,
Altura: 33 ft
Estaciones meteorológicas cercanas

Alt 33 ft 23.16 °N, 106.27 °W | Updated 48 minutes ago

Clear
Despejado
88 ° F
Sensación térmica 90 ° F
N
14
Viento Variable Viento desde OSO

Hoy
Alta -- | Baja -- ° F
--% Posibilidad de precipitaciones
Ayer
Alta -- | Baja -- ° F
Precip. -- pul
7:04 AM 6:34 PM
Creciente menguante, 4% visible
Presión 29.69 pul
Visibilidad 14.0 Millas
Nubes Despejado
Índice de calor 90 ° F
Punto de rocío 66 ° F
Humedad 49%
Precipitaciones 0.00 pul
Espesor de la nieve No disponible.
UV 7 de una escala de 12
Polen No disponible.
Calidad del aire No disponible.
Flu Activity No disponible.
METAR MMMZ 212041Z 25012KT 14SM SKC 31/19 A2969 RMK SLP054 57023 956 ISOL CU 1QUAD

More Conditions Fewer Conditions

Presión 29.69 pul
Visibilidad 14.0 Millas
Nubes Despejado
Índice de calor 90 ° F
Punto de rocío 66 ° F
Humedad 49%
Precipitaciones 0.00 pul
Espesor de la nieve No disponible.
UV 7 de una escala de 12
Polen No disponible.
Calidad del aire No disponible.
Flu Activity No disponible.
METAR MMMZ 212041Z 25012KT 14SM SKC 31/19 A2969 RMK SLP054 57023 956 ISOL CU 1QUAD

More Conditions Fewer Conditions

10-Day Weather Forecast

Almanac

Astronomía

Oct. 21, 2014 Salida Puesta
Hora real 7:04 AM MDT 6:34 PM MDT
Crepúsculo civil 6:41 AM MDT 6:57 PM MDT
Crepúsculo náutico 6:15 AM MDT 7:23 PM MDT
Crepúsculo astronómico 5:49 AM MDT 7:49 PM MDT
Luna 5:06 AM MDT 5:18 PM MDT
Horas de luz 12h 15m
Horas de luz
11h 29m
Tomorrow will be 1m 16s shorter.
Creciente menguante, 4% of the Moon is Illuminated
Hoy
Creciente menguante
Oct 23
Nueva
Oct 30
Cuarto creciente
Nov 6
Luna llena
Nov 14
Cuarto menguante

Extremos de hoy

Máximos del país Bajas del país

Community

WunderPhotos

Upload Photos

1,763,779 ¡fotos cargadas!

Nearby

Calidad del aire

Not available.

Grosos de nieve

Not available.

Actividad de terremotos

Ciudad Distance Mag. Tiempo y dato
No hay informes recientes de la actividad sísmica.
Magnitud mínima muestra es 2,5.

Temperaturas de aguas costeras

Lugar Temperatura
Sin partes meteorológicos de las estaciones

Estaciones meteorológicas cercanas